sensor_id;sensor_type;location;lat;lon;timestamp;P1;durP1;ratioP1;P2;durP2;ratioP2
46551;SDS011;32278;51.810;4.712;2022-09-02T00:00:56;1.17;;;1.08;;
46551;SDS011;32278;51.810;4.712;2022-09-02T00:03:30;1.77;;;1.20;;
46551;SDS011;32278;51.810;4.712;2022-09-02T00:05:58;1.45;;;0.70;;
46551;SDS011;32278;51.810;4.712;2022-09-02T00:08:25;3.10;;;0.90;;
46551;SDS011;32278;51.810;4.712;2022-09-02T00:10:51;4.05;;;0.95;;
46551;SDS011;32278;51.810;4.712;2022-09-02T00:13:17;3.53;;;1.02;;
46551;SDS011;32278;51.810;4.712;2022-09-02T00:15:44;1.50;;;0.98;;
46551;SDS011;32278;51.810;4.712;2022-09-02T00:18:10;3.75;;;0.90;;
46551;SDS011;32278;51.810;4.712;2022-09-02T00:20:37;4.80;;;1.38;;
46551;SDS011;32278;51.810;4.712;2022-09-02T00:23:04;4.70;;;0.85;;
46551;SDS011;32278;51.810;4.712;2022-09-02T00:25:30;1.02;;;0.70;;
46551;SDS011;32278;51.810;4.712;2022-09-02T00:27:56;3.30;;;1.05;;
46551;SDS011;32278;51.810;4.712;2022-09-02T00:30:21;1.02;;;0.77;;
46551;SDS011;32278;51.810;4.712;2022-09-02T00:32:47;3.42;;;0.90;;
46551;SDS011;32278;51.810;4.712;2022-09-02T00:35:13;2.85;;;0.82;;
46551;SDS011;32278;51.810;4.712;2022-09-02T00:37:38;1.48;;;1.00;;
46551;SDS011;32278;51.810;4.712;2022-09-02T00:40:05;1.48;;;1.05;;
46551;SDS011;32278;51.810;4.712;2022-09-02T00:42:32;2.65;;;2.17;;
46551;SDS011;32278;51.810;4.712;2022-09-02T00:44:58;3.40;;;0.65;;
46551;SDS011;32278;51.810;4.712;2022-09-02T00:47:26;0.93;;;0.73;;
46551;SDS011;32278;51.810;4.712;2022-09-02T00:49:55;0.85;;;0.80;;
46551;SDS011;32278;51.810;4.712;2022-09-02T00:55:01;0.95;;;0.60;;
46551;SDS011;32278;51.810;4.712;2022-09-02T00:57:38;1.02;;;0.73;;
46551;SDS011;32278;51.810;4.712;2022-09-02T01:00:18;2.88;;;0.77;;
46551;SDS011;32278;51.810;4.712;2022-09-02T01:02:54;1.55;;;0.57;;
46551;SDS011;32278;51.810;4.712;2022-09-02T01:05:23;3.08;;;0.93;;
46551;SDS011;32278;51.810;4.712;2022-09-02T01:07:50;1.63;;;0.77;;
46551;SDS011;32278;51.810;4.712;2022-09-02T01:10:23;0.73;;;0.70;;
46551;SDS011;32278;51.810;4.712;2022-09-02T01:12:54;4.70;;;1.55;;
46551;SDS011;32278;51.810;4.712;2022-09-02T01:15:22;2.92;;;1.00;;
46551;SDS011;32278;51.810;4.712;2022-09-02T01:17:48;4.35;;;0.80;;
46551;SDS011;32278;51.810;4.712;2022-09-02T01:20:17;2.63;;;0.90;;
46551;SDS011;32278;51.810;4.712;2022-09-02T01:22:45;1.90;;;1.00;;
46551;SDS011;32278;51.810;4.712;2022-09-02T01:25:13;2.03;;;0.80;;
46551;SDS011;32278;51.810;4.712;2022-09-02T01:27:42;2.38;;;0.80;;
46551;SDS011;32278;51.810;4.712;2022-09-02T01:30:09;2.85;;;0.85;;
46551;SDS011;32278;51.810;4.712;2022-09-02T01:32:37;1.58;;;0.68;;
46551;SDS011;32278;51.810;4.712;2022-09-02T01:35:03;4.85;;;0.90;;
46551;SDS011;32278;51.810;4.712;2022-09-02T01:37:29;1.35;;;1.02;;
46551;SDS011;32278;51.810;4.712;2022-09-02T01:39:56;1.55;;;0.65;;
46551;SDS011;32278;51.810;4.712;2022-09-02T01:42:22;0.75;;;0.75;;
46551;SDS011;32278;51.810;4.712;2022-09-02T01:44:48;2.25;;;1.10;;
46551;SDS011;32278;51.810;4.712;2022-09-02T01:47:14;3.53;;;0.98;;
46551;SDS011;32278;51.810;4.712;2022-09-02T01:49:43;1.33;;;0.68;;
46551;SDS011;32278;51.810;4.712;2022-09-02T01:52:10;1.70;;;0.90;;
46551;SDS011;32278;51.810;4.712;2022-09-02T01:54:37;3.30;;;1.20;;
46551;SDS011;32278;51.810;4.712;2022-09-02T01:57:04;1.15;;;0.90;;
46551;SDS011;32278;51.810;4.712;2022-09-02T01:59:29;5.75;;;0.88;;
46551;SDS011;32278;51.810;4.712;2022-09-02T02:01:55;1.38;;;0.90;;
46551;SDS011;32278;51.810;4.712;2022-09-02T02:04:21;2.10;;;0.82;;
46551;SDS011;32278;51.810;4.712;2022-09-02T02:06:48;4.22;;;0.98;;
46551;SDS011;32278;51.810;4.712;2022-09-02T02:09:15;2.67;;;0.80;;
46551;SDS011;32278;51.810;4.712;2022-09-02T02:11:41;4.75;;;0.68;;
46551;SDS011;32278;51.810;4.712;2022-09-02T02:14:08;5.60;;;2.80;;
46551;SDS011;32278;51.810;4.712;2022-09-02T02:16:37;2.25;;;1.30;;
46551;SDS011;32278;51.810;4.712;2022-09-02T02:19:03;3.22;;;1.35;;
46551;SDS011;32278;51.810;4.712;2022-09-02T02:21:29;1.33;;;0.90;;
46551;SDS011;32278;51.810;4.712;2022-09-02T02:23:55;2.15;;;1.10;;
46551;SDS011;32278;51.810;4.712;2022-09-02T02:26:24;2.05;;;0.90;;
46551;SDS011;32278;51.810;4.712;2022-09-02T02:28:49;3.92;;;1.20;;
46551;SDS011;32278;51.810;4.712;2022-09-02T02:31:15;1.52;;;1.17;;
46551;SDS011;32278;51.810;4.712;2022-09-02T02:33:41;7.82;;;1.27;;
46551;SDS011;32278;51.810;4.712;2022-09-02T02:36:06;0.90;;;0.90;;
46551;SDS011;32278;51.810;4.712;2022-09-02T02:38:33;1.48;;;0.82;;
46551;SDS011;32278;51.810;4.712;2022-09-02T02:41:00;2.33;;;1.67;;
46551;SDS011;32278;51.810;4.712;2022-09-02T02:43:28;1.52;;;0.90;;
46551;SDS011;32278;51.810;4.712;2022-09-02T02:45:54;2.42;;;0.85;;
46551;SDS011;32278;51.810;4.712;2022-09-02T02:48:20;4.00;;;1.05;;
46551;SDS011;32278;51.810;4.712;2022-09-02T02:50:46;3.75;;;1.58;;
46551;SDS011;32278;51.810;4.712;2022-09-02T02:53:12;3.47;;;1.00;;
46551;SDS011;32278;51.810;4.712;2022-09-02T02:55:38;2.00;;;0.88;;
46551;SDS011;32278;51.810;4.712;2022-09-02T02:58:04;0.95;;;0.70;;
46551;SDS011;32278;51.810;4.712;2022-09-02T03:00:30;1.35;;;1.00;;
46551;SDS011;32278;51.810;4.712;2022-09-02T03:02:58;3.85;;;1.42;;
46551;SDS011;32278;51.810;4.712;2022-09-02T03:05:25;1.63;;;1.10;;
46551;SDS011;32278;51.810;4.712;2022-09-02T03:07:51;2.22;;;1.08;;
46551;SDS011;32278;51.810;4.712;2022-09-02T03:10:18;3.55;;;1.20;;
46551;SDS011;32278;51.810;4.712;2022-09-02T03:12:44;2.17;;;0.75;;
46551;SDS011;32278;51.810;4.712;2022-09-02T03:15:11;2.63;;;1.30;;
46551;SDS011;32278;51.810;4.712;2022-09-02T03:17:40;3.53;;;1.15;;
46551;SDS011;32278;51.810;4.712;2022-09-02T03:20:07;1.85;;;0.90;;
46551;SDS011;32278;51.810;4.712;2022-09-02T03:22:32;4.30;;;1.30;;
46551;SDS011;32278;51.810;4.712;2022-09-02T03:25:00;2.38;;;0.98;;
46551;SDS011;32278;51.810;4.712;2022-09-02T03:27:25;4.82;;;1.45;;
46551;SDS011;32278;51.810;4.712;2022-09-02T03:29:51;2.88;;;1.20;;
46551;SDS011;32278;51.810;4.712;2022-09-02T03:32:16;1.80;;;0.90;;
46551;SDS011;32278;51.810;4.712;2022-09-02T03:34:43;5.18;;;1.10;;
46551;SDS011;32278;51.810;4.712;2022-09-02T03:37:09;0.77;;;0.75;;
46551;SDS011;32278;51.810;4.712;2022-09-02T03:39:35;1.67;;;1.00;;
46551;SDS011;32278;51.810;4.712;2022-09-02T03:42:02;6.82;;;1.23;;
46551;SDS011;32278;51.810;4.712;2022-09-02T03:44:28;1.38;;;0.85;;
46551;SDS011;32278;51.810;4.712;2022-09-02T03:46:53;3.75;;;1.33;;
46551;SDS011;32278;51.810;4.712;2022-09-02T03:49:19;5.15;;;1.10;;
46551;SDS011;32278;51.810;4.712;2022-09-02T03:51:44;2.63;;;0.80;;
46551;SDS011;32278;51.810;4.712;2022-09-02T03:54:10;8.32;;;1.05;;
46551;SDS011;32278;51.810;4.712;2022-09-02T03:56:36;3.42;;;0.98;;
46551;SDS011;32278;51.810;4.712;2022-09-02T03:59:02;2.13;;;1.00;;
46551;SDS011;32278;51.810;4.712;2022-09-02T04:01:28;1.85;;;0.98;;
46551;SDS011;32278;51.810;4.712;2022-09-02T04:03:53;0.98;;;0.82;;
46551;SDS011;32278;51.810;4.712;2022-09-02T04:06:20;2.47;;;1.15;;
46551;SDS011;32278;51.810;4.712;2022-09-02T04:08:47;3.28;;;1.05;;
46551;SDS011;32278;51.810;4.712;2022-09-02T04:11:15;1.90;;;1.10;;
46551;SDS011;32278;51.810;4.712;2022-09-02T04:13:42;4.13;;;1.00;;
46551;SDS011;32278;51.810;4.712;2022-09-02T04:16:14;6.75;;;1.17;;
46551;SDS011;32278;51.810;4.712;2022-09-02T04:18:42;2.65;;;0.90;;
46551;SDS011;32278;51.810;4.712;2022-09-02T04:21:08;1.20;;;1.00;;
46551;SDS011;32278;51.810;4.712;2022-09-02T04:23:34;2.40;;;1.23;;
46551;SDS011;32278;51.810;4.712;2022-09-02T04:26:07;3.65;;;0.90;;
46551;SDS011;32278;51.810;4.712;2022-09-02T04:28:36;1.45;;;0.90;;
46551;SDS011;32278;51.810;4.712;2022-09-02T04:31:03;1.85;;;0.98;;
46551;SDS011;32278;51.810;4.712;2022-09-02T04:33:32;4.03;;;1.20;;
46551;SDS011;32278;51.810;4.712;2022-09-02T04:35:58;4.50;;;1.50;;
46551;SDS011;32278;51.810;4.712;2022-09-02T04:38:24;3.17;;;0.90;;
46551;SDS011;32278;51.810;4.712;2022-09-02T04:40:50;3.20;;;1.20;;
46551;SDS011;32278;51.810;4.712;2022-09-02T04:43:15;1.77;;;1.15;;
46551;SDS011;32278;51.810;4.712;2022-09-02T04:45:42;1.35;;;1.15;;
46551;SDS011;32278;51.810;4.712;2022-09-02T04:48:10;1.83;;;0.90;;
46551;SDS011;32278;51.810;4.712;2022-09-02T04:50:36;2.00;;;1.10;;
46551;SDS011;32278;51.810;4.712;2022-09-02T04:53:05;1.90;;;1.10;;
46551;SDS011;32278;51.810;4.712;2022-09-02T04:55:31;2.47;;;1.30;;
46551;SDS011;32278;51.810;4.712;2022-09-02T04:57:57;2.65;;;1.50;;
46551;SDS011;32278;51.810;4.712;2022-09-02T05:00:23;5.20;;;1.30;;
46551;SDS011;32278;51.810;4.712;2022-09-02T05:02:50;6.05;;;1.50;;
46551;SDS011;32278;51.810;4.712;2022-09-02T05:05:17;4.30;;;1.10;;
46551;SDS011;32278;51.810;4.712;2022-09-02T05:07:43;5.97;;;1.10;;
46551;SDS011;32278;51.810;4.712;2022-09-02T05:10:08;3.10;;;1.00;;
46551;SDS011;32278;51.810;4.712;2022-09-02T05:12:37;2.35;;;1.20;;
46551;SDS011;32278;51.810;4.712;2022-09-02T05:15:04;4.47;;;1.48;;
46551;SDS011;32278;51.810;4.712;2022-09-02T05:17:31;3.17;;;1.08;;
46551;SDS011;32278;51.810;4.712;2022-09-02T05:19:57;2.50;;;1.20;;
46551;SDS011;32278;51.810;4.712;2022-09-02T05:22:22;3.72;;;1.38;;
46551;SDS011;32278;51.810;4.712;2022-09-02T05:24:49;2.88;;;1.40;;
46551;SDS011;32278;51.810;4.712;2022-09-02T05:27:15;1.20;;;0.90;;
46551;SDS011;32278;51.810;4.712;2022-09-02T05:29:41;1.65;;;1.05;;
46551;SDS011;32278;51.810;4.712;2022-09-02T05:32:07;5.13;;;1.52;;
46551;SDS011;32278;51.810;4.712;2022-09-02T05:34:34;5.05;;;1.40;;
46551;SDS011;32278;51.810;4.712;2022-09-02T05:37:01;1.88;;;1.35;;
46551;SDS011;32278;51.810;4.712;2022-09-02T05:39:27;6.05;;;1.50;;
46551;SDS011;32278;51.810;4.712;2022-09-02T05:41:53;4.28;;;1.30;;
46551;SDS011;32278;51.810;4.712;2022-09-02T05:44:19;4.88;;;1.42;;
46551;SDS011;32278;51.810;4.712;2022-09-02T05:46:45;4.78;;;1.48;;
46551;SDS011;32278;51.810;4.712;2022-09-02T05:49:11;1.90;;;1.27;;
46551;SDS011;32278;51.810;4.712;2022-09-02T05:51:45;4.90;;;0.95;;
46551;SDS011;32278;51.810;4.712;2022-09-02T05:54:14;1.63;;;1.35;;
46551;SDS011;32278;51.810;4.712;2022-09-02T05:56:49;1.98;;;1.20;;
46551;SDS011;32278;51.810;4.712;2022-09-02T05:59:23;6.85;;;1.77;;
46551;SDS011;32278;51.810;4.712;2022-09-02T06:01:51;1.92;;;1.20;;
46551;SDS011;32278;51.810;4.712;2022-09-02T06:04:17;5.43;;;1.95;;
46551;SDS011;32278;51.810;4.712;2022-09-02T06:06:43;4.78;;;1.50;;
46551;SDS011;32278;51.810;4.712;2022-09-02T06:09:10;3.70;;;1.50;;
46551;SDS011;32278;51.810;4.712;2022-09-02T06:11:40;2.10;;;1.20;;
46551;SDS011;32278;51.810;4.712;2022-09-02T06:14:10;4.78;;;1.45;;
46551;SDS011;32278;51.810;4.712;2022-09-02T06:16:38;4.18;;;1.55;;
46551;SDS011;32278;51.810;4.712;2022-09-02T06:19:04;1.63;;;1.27;;
46551;SDS011;32278;51.810;4.712;2022-09-02T06:21:31;7.32;;;1.70;;
46551;SDS011;32278;51.810;4.712;2022-09-02T06:23:57;1.50;;;1.40;;
46551;SDS011;32278;51.810;4.712;2022-09-02T06:26:24;8.00;;;1.33;;
46551;SDS011;32278;51.810;4.712;2022-09-02T06:28:49;4.25;;;1.85;;
46551;SDS011;32278;51.810;4.712;2022-09-02T06:31:16;4.68;;;1.40;;
46551;SDS011;32278;51.810;4.712;2022-09-02T06:33:44;3.38;;;1.73;;
46551;SDS011;32278;51.810;4.712;2022-09-02T06:36:12;3.28;;;1.30;;
46551;SDS011;32278;51.810;4.712;2022-09-02T06:38:40;2.47;;;1.73;;
46551;SDS011;32278;51.810;4.712;2022-09-02T06:41:09;8.80;;;1.80;;
46551;SDS011;32278;51.810;4.712;2022-09-02T06:43:36;1.48;;;1.38;;
46551;SDS011;32278;51.810;4.712;2022-09-02T06:46:01;4.53;;;1.98;;
46551;SDS011;32278;51.810;4.712;2022-09-02T06:48:27;5.55;;;1.90;;
46551;SDS011;32278;51.810;4.712;2022-09-02T06:50:53;3.80;;;1.48;;
46551;SDS011;32278;51.810;4.712;2022-09-02T06:53:19;2.45;;;1.42;;
46551;SDS011;32278;51.810;4.712;2022-09-02T06:55:45;1.55;;;1.40;;
46551;SDS011;32278;51.810;4.712;2022-09-02T06:58:11;5.05;;;1.55;;
46551;SDS011;32278;51.810;4.712;2022-09-02T07:00:38;6.18;;;2.00;;
46551;SDS011;32278;51.810;4.712;2022-09-02T07:03:05;3.22;;;1.60;;
46551;SDS011;32278;51.810;4.712;2022-09-02T07:06:00;5.93;;;1.98;;
46551;SDS011;32278;51.810;4.712;2022-09-02T07:08:26;5.72;;;1.80;;
46551;SDS011;32278;51.810;4.712;2022-09-02T07:10:52;15.57;;;2.53;;
46551;SDS011;32278;51.810;4.712;2022-09-02T07:13:17;3.63;;;1.70;;
46551;SDS011;32278;51.810;4.712;2022-09-02T07:15:43;5.35;;;2.55;;
46551;SDS011;32278;51.810;4.712;2022-09-02T07:18:08;5.43;;;2.20;;
46551;SDS011;32278;51.810;4.712;2022-09-02T07:20:34;3.63;;;2.00;;
46551;SDS011;32278;51.810;4.712;2022-09-02T07:23:00;3.38;;;2.13;;
46551;SDS011;32278;51.810;4.712;2022-09-02T07:25:26;9.80;;;2.50;;
46551;SDS011;32278;51.810;4.712;2022-09-02T07:27:52;2.55;;;2.15;;
46551;SDS011;32278;51.810;4.712;2022-09-02T07:30:18;2.88;;;2.05;;
46551;SDS011;32278;51.810;4.712;2022-09-02T07:32:44;18.45;;;3.85;;
46551;SDS011;32278;51.810;4.712;2022-09-02T07:35:09;7.45;;;2.20;;
46551;SDS011;32278;51.810;4.712;2022-09-02T07:37:35;3.85;;;2.28;;
46551;SDS011;32278;51.810;4.712;2022-09-02T07:40:02;7.57;;;2.30;;
46551;SDS011;32278;51.810;4.712;2022-09-02T07:42:29;7.97;;;2.50;;
46551;SDS011;32278;51.810;4.712;2022-09-02T07:44:54;4.75;;;2.17;;
46551;SDS011;32278;51.810;4.712;2022-09-02T07:47:20;8.77;;;2.42;;
46551;SDS011;32278;51.810;4.712;2022-09-02T07:49:46;5.35;;;2.42;;
46551;SDS011;32278;51.810;4.712;2022-09-02T07:52:11;11.07;;;4.78;;
46551;SDS011;32278;51.810;4.712;2022-09-02T07:54:37;7.10;;;2.80;;
46551;SDS011;32278;51.810;4.712;2022-09-02T07:57:03;11.57;;;2.75;;
46551;SDS011;32278;51.810;4.712;2022-09-02T07:59:30;4.25;;;2.40;;
46551;SDS011;32278;51.810;4.712;2022-09-02T08:01:55;8.10;;;2.30;;
46551;SDS011;32278;51.810;4.712;2022-09-02T08:04:21;7.95;;;2.53;;
46551;SDS011;32278;51.810;4.712;2022-09-02T08:06:49;10.63;;;3.17;;
46551;SDS011;32278;51.810;4.712;2022-09-02T08:09:16;6.22;;;2.65;;
46551;SDS011;32278;51.810;4.712;2022-09-02T08:11:43;7.00;;;2.83;;
46551;SDS011;32278;51.810;4.712;2022-09-02T08:14:12;9.98;;;2.67;;
46551;SDS011;32278;51.810;4.712;2022-09-02T08:16:41;7.35;;;2.30;;
46551;SDS011;32278;51.810;4.712;2022-09-02T08:19:07;6.25;;;2.50;;
46551;SDS011;32278;51.810;4.712;2022-09-02T08:21:33;5.22;;;2.25;;
46551;SDS011;32278;51.810;4.712;2022-09-02T08:23:59;4.22;;;2.15;;
46551;SDS011;32278;51.810;4.712;2022-09-02T08:26:25;4.85;;;2.50;;
46551;SDS011;32278;51.810;4.712;2022-09-02T08:28:52;8.48;;;2.63;;
46551;SDS011;32278;51.810;4.712;2022-09-02T08:31:18;5.65;;;2.30;;
46551;SDS011;32278;51.810;4.712;2022-09-02T08:33:44;5.15;;;2.50;;
46551;SDS011;32278;51.810;4.712;2022-09-02T08:36:10;6.38;;;2.95;;
46551;SDS011;32278;51.810;4.712;2022-09-02T08:38:38;10.35;;;4.18;;
46551;SDS011;32278;51.810;4.712;2022-09-02T08:41:16;10.13;;;2.65;;
46551;SDS011;32278;51.810;4.712;2022-09-02T08:43:50;10.90;;;3.13;;
46551;SDS011;32278;51.810;4.712;2022-09-02T08:46:22;7.18;;;2.85;;
46551;SDS011;32278;51.810;4.712;2022-09-02T08:51:46;5.28;;;2.83;;
46551;SDS011;32278;51.810;4.712;2022-09-02T08:56:47;10.45;;;3.33;;
46551;SDS011;32278;51.810;4.712;2022-09-02T08:59:15;6.95;;;2.97;;
46551;SDS011;32278;51.810;4.712;2022-09-02T09:09:49;4.90;;;3.03;;
46551;SDS011;32278;51.810;4.712;2022-09-02T09:17:44;6.95;;;2.83;;
46551;SDS011;32278;51.810;4.712;2022-09-02T09:20:24;6.07;;;2.60;;
46551;SDS011;32278;51.810;4.712;2022-09-02T09:22:57;5.80;;;3.33;;
46551;SDS011;32278;51.810;4.712;2022-09-02T09:25:24;9.32;;;3.40;;
46551;SDS011;32278;51.810;4.712;2022-09-02T09:27:57;4.75;;;2.50;;
46551;SDS011;32278;51.810;4.712;2022-09-02T09:30:24;6.18;;;2.97;;
46551;SDS011;32278;51.810;4.712;2022-09-02T09:32:57;12.93;;;2.95;;
46551;SDS011;32278;51.810;4.712;2022-09-02T09:35:24;8.32;;;2.90;;
46551;SDS011;32278;51.810;4.712;2022-09-02T09:37:52;5.68;;;2.70;;
46551;SDS011;32278;51.810;4.712;2022-09-02T09:45:37;8.48;;;3.75;;
46551;SDS011;32278;51.810;4.712;2022-09-02T09:50:40;6.28;;;3.00;;
46551;SDS011;32278;51.810;4.712;2022-09-02T09:53:19;8.68;;;2.95;;
46551;SDS011;32278;51.810;4.712;2022-09-02T09:58:23;11.15;;;3.20;;
46551;SDS011;32278;51.810;4.712;2022-09-02T10:00:56;8.35;;;3.30;;
46551;SDS011;32278;51.810;4.712;2022-09-02T10:03:27;7.88;;;3.80;;
46551;SDS011;32278;51.810;4.712;2022-09-02T10:05:55;10.18;;;3.42;;
46551;SDS011;32278;51.810;4.712;2022-09-02T10:08:23;11.52;;;2.85;;
46551;SDS011;32278;51.810;4.712;2022-09-02T10:11:00;9.48;;;3.47;;
46551;SDS011;32278;51.810;4.712;2022-09-02T10:13:30;4.65;;;2.88;;
46551;SDS011;32278;51.810;4.712;2022-09-02T10:16:04;9.82;;;3.45;;
46551;SDS011;32278;51.810;4.712;2022-09-02T10:18:47;6.97;;;3.70;;
46551;SDS011;32278;51.810;4.712;2022-09-02T10:26:57;7.18;;;3.83;;
46551;SDS011;32278;51.810;4.712;2022-09-02T10:34:42;9.02;;;3.92;;
46551;SDS011;32278;51.810;4.712;2022-09-02T10:37:31;6.40;;;3.45;;
46551;SDS011;32278;51.810;4.712;2022-09-02T10:40:20;6.60;;;3.80;;
46551;SDS011;32278;51.810;4.712;2022-09-02T10:43:03;9.52;;;3.97;;
46551;SDS011;32278;51.810;4.712;2022-09-02T10:45:35;6.57;;;3.67;;
46551;SDS011;32278;51.810;4.712;2022-09-02T10:51:20;5.65;;;3.60;;
46551;SDS011;32278;51.810;4.712;2022-09-02T10:56:49;12.65;;;3.50;;
46551;SDS011;32278;51.810;4.712;2022-09-02T10:59:26;11.10;;;3.53;;
46551;SDS011;32278;51.810;4.712;2022-09-02T11:01:59;10.52;;;3.85;;
46551;SDS011;32278;51.810;4.712;2022-09-02T11:08:02;10.97;;;3.13;;
46551;SDS011;32278;51.810;4.712;2022-09-02T11:13:34;7.50;;;3.65;;
46551;SDS011;32278;51.810;4.712;2022-09-02T11:16:17;8.88;;;4.07;;
46551;SDS011;32278;51.810;4.712;2022-09-02T11:19:01;5.75;;;3.03;;
46551;SDS011;32278;51.810;4.712;2022-09-02T11:21:47;7.70;;;3.72;;
46551;SDS011;32278;51.810;4.712;2022-09-02T11:24:41;9.23;;;3.45;;
46551;SDS011;32278;51.810;4.712;2022-09-02T11:35:03;5.07;;;3.25;;
46551;SDS011;32278;51.810;4.712;2022-09-02T11:40:05;4.78;;;2.63;;
46551;SDS011;32278;51.810;4.712;2022-09-02T11:45:38;5.03;;;3.47;;
46551;SDS011;32278;51.810;4.712;2022-09-02T11:51:39;6.35;;;2.90;;
46551;SDS011;32278;51.810;4.712;2022-09-02T11:54:18;5.38;;;2.17;;
46551;SDS011;32278;51.810;4.712;2022-09-02T11:56:47;5.72;;;2.75;;
46551;SDS011;32278;51.810;4.712;2022-09-02T12:00:06;3.45;;;2.45;;
46551;SDS011;32278;51.810;4.712;2022-09-02T12:02:35;7.07;;;3.33;;
46551;SDS011;32278;51.810;4.712;2022-09-02T12:07:56;6.70;;;2.35;;
46551;SDS011;32278;51.810;4.712;2022-09-02T12:18:47;7.47;;;2.78;;
46551;SDS011;32278;51.810;4.712;2022-09-02T12:21:32;8.52;;;2.30;;
46551;SDS011;32278;51.810;4.712;2022-09-02T12:31:47;9.93;;;2.55;;
46551;SDS011;32278;51.810;4.712;2022-09-02T12:34:48;5.78;;;2.40;;
46551;SDS011;32278;51.810;4.712;2022-09-02T12:37:14;6.18;;;2.22;;
46551;SDS011;32278;51.810;4.712;2022-09-02T12:40:14;11.77;;;3.25;;
46551;SDS011;32278;51.810;4.712;2022-09-02T12:42:46;4.88;;;2.80;;
46551;SDS011;32278;51.810;4.712;2022-09-02T12:45:13;6.43;;;3.10;;
46551;SDS011;32278;51.810;4.712;2022-09-02T12:48:00;4.85;;;3.03;;
46551;SDS011;32278;51.810;4.712;2022-09-02T12:56:30;10.95;;;4.55;;
46551;SDS011;32278;51.810;4.712;2022-09-02T12:58:46;4.82;;;2.80;;
46551;SDS011;32278;51.810;4.712;2022-09-02T13:01:16;6.78;;;3.13;;
46551;SDS011;32278;51.810;4.712;2022-09-02T13:09:09;5.80;;;4.10;;
46551;SDS011;32278;51.810;4.712;2022-09-02T13:17:26;10.65;;;3.38;;
46551;SDS011;32278;51.810;4.712;2022-09-02T13:23:17;8.07;;;3.25;;
46551;SDS011;32278;51.810;4.712;2022-09-02T13:26:22;5.72;;;2.88;;
46551;SDS011;32278;51.810;4.712;2022-09-02T13:34:50;7.97;;;2.88;;
46551;SDS011;32278;51.810;4.712;2022-09-02T13:37:25;4.43;;;2.35;;
46551;SDS011;32278;51.810;4.712;2022-09-02T13:39:59;7.70;;;2.92;;
46551;SDS011;32278;51.810;4.712;2022-09-02T13:42:29;4.40;;;2.60;;
46551;SDS011;32278;51.810;4.712;2022-09-02T13:45:11;3.95;;;2.22;;
46551;SDS011;32278;51.810;4.712;2022-09-02T13:47:40;4.22;;;2.30;;
46551;SDS011;32278;51.810;4.712;2022-09-02T13:50:07;6.03;;;2.60;;
46551;SDS011;32278;51.810;4.712;2022-09-02T13:52:35;3.92;;;2.15;;
46551;SDS011;32278;51.810;4.712;2022-09-02T13:55:02;6.32;;;2.15;;
46551;SDS011;32278;51.810;4.712;2022-09-02T13:57:29;3.90;;;1.75;;
46551;SDS011;32278;51.810;4.712;2022-09-02T13:59:56;3.03;;;1.85;;
46551;SDS011;32278;51.810;4.712;2022-09-02T14:02:29;2.35;;;2.03;;
46551;SDS011;32278;51.810;4.712;2022-09-02T14:05:08;3.75;;;1.73;;
46551;SDS011;32278;51.810;4.712;2022-09-02T14:07:49;10.55;;;2.08;;
46551;SDS011;32278;51.810;4.712;2022-09-02T14:10:19;4.85;;;1.98;;
46551;SDS011;32278;51.810;4.712;2022-09-02T14:12:47;5.78;;;2.67;;
46551;SDS011;32278;51.810;4.712;2022-09-02T14:15:15;2.42;;;1.80;;
46551;SDS011;32278;51.810;4.712;2022-09-02T14:18:05;2.65;;;1.55;;
46551;SDS011;32278;51.810;4.712;2022-09-02T14:20:36;3.08;;;1.50;;
46551;SDS011;32278;51.810;4.712;2022-09-02T14:23:03;5.95;;;1.83;;
46551;SDS011;32278;51.810;4.712;2022-09-02T14:25:31;4.63;;;1.80;;
46551;SDS011;32278;51.810;4.712;2022-09-02T14:28:05;2.50;;;1.13;;
46551;SDS011;32278;51.810;4.712;2022-09-02T14:30:52;4.38;;;1.50;;
46551;SDS011;32278;51.810;4.712;2022-09-02T14:36:03;2.08;;;1.60;;
46551;SDS011;32278;51.810;4.712;2022-09-02T14:38:38;13.82;;;2.08;;
46551;SDS011;32278;51.810;4.712;2022-09-02T14:41:31;7.30;;;1.83;;
46551;SDS011;32278;51.810;4.712;2022-09-02T14:44:10;2.20;;;1.65;;
46551;SDS011;32278;51.810;4.712;2022-09-02T14:46:43;3.88;;;1.85;;
46551;SDS011;32278;51.810;4.712;2022-09-02T14:49:17;3.03;;;1.58;;
46551;SDS011;32278;51.810;4.712;2022-09-02T14:51:48;1.70;;;1.45;;
46551;SDS011;32278;51.810;4.712;2022-09-02T14:57:02;5.65;;;2.33;;
46551;SDS011;32278;51.810;4.712;2022-09-02T14:59:29;2.70;;;1.85;;
46551;SDS011;32278;51.810;4.712;2022-09-02T15:01:55;2.95;;;1.85;;
46551;SDS011;32278;51.810;4.712;2022-09-02T15:04:22;4.47;;;2.40;;
46551;SDS011;32278;51.810;4.712;2022-09-02T15:06:48;2.55;;;1.92;;
46551;SDS011;32278;51.810;4.712;2022-09-02T15:09:15;3.45;;;1.67;;
46551;SDS011;32278;51.810;4.712;2022-09-02T15:11:47;4.88;;;1.70;;
46551;SDS011;32278;51.810;4.712;2022-09-02T15:14:15;1.80;;;1.40;;
46551;SDS011;32278;51.810;4.712;2022-09-02T15:16:41;1.60;;;1.50;;
46551;SDS011;32278;51.810;4.712;2022-09-02T15:19:06;3.28;;;2.30;;
46551;SDS011;32278;51.810;4.712;2022-09-02T15:21:32;2.33;;;1.45;;
46551;SDS011;32278;51.810;4.712;2022-09-02T15:23:58;3.65;;;1.60;;
46551;SDS011;32278;51.810;4.712;2022-09-02T15:26:23;5.32;;;1.42;;
46551;SDS011;32278;51.810;4.712;2022-09-02T15:28:49;7.03;;;2.53;;
46551;SDS011;32278;51.810;4.712;2022-09-02T15:31:15;3.60;;;1.65;;
46551;SDS011;32278;51.810;4.712;2022-09-02T15:33:41;5.40;;;2.17;;
46551;SDS011;32278;51.810;4.712;2022-09-02T15:36:08;4.90;;;2.05;;
46551;SDS011;32278;51.810;4.712;2022-09-02T15:38:36;1.60;;;1.50;;
46551;SDS011;32278;51.810;4.712;2022-09-02T15:41:21;3.55;;;1.60;;
46551;SDS011;32278;51.810;4.712;2022-09-02T15:43:48;3.05;;;1.70;;
46551;SDS011;32278;51.810;4.712;2022-09-02T15:46:15;2.00;;;1.73;;
46551;SDS011;32278;51.810;4.712;2022-09-02T15:48:43;6.28;;;2.25;;
46551;SDS011;32278;51.810;4.712;2022-09-02T15:51:12;2.92;;;1.60;;
46551;SDS011;32278;51.810;4.712;2022-09-02T15:53:39;2.30;;;1.58;;
46551;SDS011;32278;51.810;4.712;2022-09-02T15:56:13;2.38;;;1.60;;
46551;SDS011;32278;51.810;4.712;2022-09-02T15:58:40;2.65;;;1.73;;
46551;SDS011;32278;51.810;4.712;2022-09-02T16:01:06;3.90;;;1.60;;
46551;SDS011;32278;51.810;4.712;2022-09-02T16:03:31;3.60;;;1.40;;
46551;SDS011;32278;51.810;4.712;2022-09-02T16:06:00;3.08;;;1.45;;
46551;SDS011;32278;51.810;4.712;2022-09-02T16:08:27;2.67;;;1.60;;
46551;SDS011;32278;51.810;4.712;2022-09-02T16:10:52;3.78;;;1.40;;
46551;SDS011;32278;51.810;4.712;2022-09-02T16:13:18;3.45;;;1.63;;
46551;SDS011;32278;51.810;4.712;2022-09-02T16:15:45;1.95;;;1.50;;
46551;SDS011;32278;51.810;4.712;2022-09-02T16:18:10;3.00;;;1.50;;
46551;SDS011;32278;51.810;4.712;2022-09-02T16:20:36;5.65;;;1.95;;
46551;SDS011;32278;51.810;4.712;2022-09-02T16:23:01;6.72;;;1.85;;
46551;SDS011;32278;51.810;4.712;2022-09-02T16:25:27;2.67;;;2.20;;
46551;SDS011;32278;51.810;4.712;2022-09-02T16:27:52;2.10;;;1.85;;
46551;SDS011;32278;51.810;4.712;2022-09-02T16:30:19;2.45;;;1.88;;
46551;SDS011;32278;51.810;4.712;2022-09-02T16:32:45;2.15;;;1.35;;
46551;SDS011;32278;51.810;4.712;2022-09-02T16:35:11;3.20;;;1.80;;
46551;SDS011;32278;51.810;4.712;2022-09-02T16:37:37;3.65;;;1.45;;
46551;SDS011;32278;51.810;4.712;2022-09-02T16:40:03;1.73;;;1.63;;
46551;SDS011;32278;51.810;4.712;2022-09-02T16:42:29;2.15;;;1.55;;
46551;SDS011;32278;51.810;4.712;2022-09-02T16:44:55;4.25;;;1.38;;
46551;SDS011;32278;51.810;4.712;2022-09-02T16:47:20;1.75;;;1.25;;
46551;SDS011;32278;51.810;4.712;2022-09-02T16:49:46;3.50;;;1.80;;
46551;SDS011;32278;51.810;4.712;2022-09-02T16:52:12;3.35;;;1.90;;
46551;SDS011;32278;51.810;4.712;2022-09-02T16:54:38;1.85;;;1.60;;
46551;SDS011;32278;51.810;4.712;2022-09-02T16:57:03;3.05;;;1.55;;
46551;SDS011;32278;51.810;4.712;2022-09-02T16:59:30;3.60;;;1.40;;
46551;SDS011;32278;51.810;4.712;2022-09-02T17:01:55;2.92;;;1.60;;